Home Login RADIO ONLINE RSS Facebook
Find Radio Online
AM FM HD

Site of the Day
WYCD

Nielsen Audio Ratings

Market Rank: 1-50 | 51-100 | 101-150 | 151-200 | 201-250 | 251-300

Rank Market Posted Survey Population
67 Albany-Schenectady-Troy NY 07-23-21 12S 814,900
251 Augusta-Waterville ME 07-23-21 2A 107,300
216 Bangor ME 07-23-21 2S 168,800
147 Burlington-Plattsburgh VT-NY 07-23-21 2S 333,300
173 Concord (Lakes Region) MI 07-23-21 2S 246,800
41 Hudson Valley 07-23-21 2S 1,508,800
221 Lebanon-Hanover-White River Junction, NH 07-23-21 2A 158,300
197 Manchester NH 07-23-21 2S 206,100
252 Montpelier-Barre-St. Johnsbury VT 07-23-21 2S 106,600
151 Newburgh-Middletown NY 07-23-21 2A 322,000
99 Portland ME 07-23-21 2S 565,400
123 Portsmouth-Dover NH 07-23-21 2S 443,200
167 Poughkeepsie NY 07-23-21 2A 259,600
100 Syracuse NY 07-23-21 12S 560,600
172 Utica-Rome NY 07-23-21 2S 250,200
257 Watertown NY 07-23-21 2A 90,900
156 Asheville NC 07-22-21 2S 307,200
61 Birmingham AL 07-22-21 12S 925,500
59 Buffalo-Niagara Falls NY 07-22-21 12S 980,800
225 Elmira-Corning NY 07-22-21 2A 153,600
139 Fredericksburg VA 07-22-21 2S 349,000
58 Greenville-Spartanburg SC 07-22-21 12S 1,003,700
223 Olean NY 07-22-21 2A 155,000
53 Richmond VA 07-22-21 12S 1,069,300
60 Rochester NY 07-22-21 12S 955,600
208 Tuscaloosa AL 07-22-21 2A 181,300
77 Baton Rouge LA 07-21-21 12S 695,200
143 Biloxi-Gulfport-Pascagoula MS 07-21-21 2S 341,300
113 Lafayette LA 07-21-21 2S 477,000

Advertisement

212 Laurel-Hattiesburg MS 07-21-21 2A 173,500
54 Louisville KY 07-21-21 12S 1,053,000
55 Monmouth-Ocean NJ 07-21-21 2S 1,049,400
50 New Orleans LA 07-21-21 12S 1,258,400
49 Oklahoma City OK 07-21-21 12S 1,279,500
19 Puerto Rico 07-21-21 12S 2,740,700
32 Austin TX 07-16-21 PPM 1,877,300
48 Greensboro-Winston-Salem-High Point NC 07-16-21 PPM 1,315,100
52 Hartford-New Britain CT 07-16-21 PPM 1,078,200
39 Indianapolis IN 07-16-21 PPM 1,585,200
46 Jacksonville FL 07-16-21 PPM 1,345,400
51 Memphis TN 07-16-21 PPM 1,127,600
42 Milwaukee-Racine WI 07-16-21 PPM 1,508,500
40 Nashville TN 07-16-21 PPM 1,512,100
45 Norfolk-VA Beach-Newport News VA 07-16-21 PPM 1,411,600
44 Providence RI 07-16-21 PPM 1,419,800
38 Raleigh-Durham NC 07-16-21 PPM 1,651,400
47 West Palm Beach FL 07-16-21 PPM 1,321,300
23 Charlotte-Gastonia NC 07-15-21 PPM 2,391,900
33 Cincinnati OH 07-15-21 PPM 1,856,600
35 Cleveland OH 07-15-21 PPM 1,774,400
36 Columbus OH 07-15-21 PPM 1,722,000
34 Kansas City MO 07-15-21 PPM 1,777,000
31 Las Vegas NV 07-15-21 PPM 1,945,100
30 Orlando FL 07-15-21 PPM 1,956,800
29 Pittsburgh PA 07-15-21 PPM 1,972,100
21 Portland OR 07-15-21 PPM 2,413,400
27 Sacramento CA 07-15-21 PPM 2,052,500
28 Salt Lake City UT 07-15-21 PPM 2,012,700
25 San Antonio TX 07-15-21 PPM 2,151,300

Advertisement

22 Baltimore MD 07-14-21 PPM 2,408,800
10 Boston MA 07-14-21 PPM 4,376,900
18 Denver-Boulder CO 07-14-21 PPM 2,796,400
13 Detroit MI 07-14-21 PPM 3,848,800
11 Miami-Fort Lauderdale FL 07-14-21 PPM 4,159,800
15 Minneapolis-St. Paul MN 07-14-21 PPM 3,032,400
14 Phoenix AZ 07-14-21 PPM 3,815,900
16 San Diego CA 07-14-21 PPM 2,873,100
12 Seattle-Tacoma WA 07-14-21 PPM 4,006,500
24 St. Louis MO 07-14-21 PPM 2,342,200
17 Tampa-St. Petersburg FL 07-14-21 PPM 2,797,700
7 Washington DC 07-14-21 PPM 5,019,400
8 Atlanta GA 07-13-21 PPM 4,971,100
3 Chicago IL 07-13-21 PPM 7,952,400
5 Dallas-Ft. Worth TX 07-13-21 PPM 6,339,800
6 Houston-Galveston TX 07-13-21 PPM 5,979,700
2 Los Angeles CA 07-13-21 PPM 11,469,700
43 Middlesex-Somerset-Union 07-13-21 PPM 1,483,000
20 Nassau-Suffolk NY 07-13-21 PPM 2,458,400
1 New York NY 07-13-21 PPM 16,110,500
9 Philadelphia PA 07-13-21 PPM 4,627,200
26 Riverside-San Bernardino CA 07-13-21 PPM 2,145,300
4 San Francisco CA 07-13-21 PPM 6,764,400
37 San Jose CA 07-13-21 PPM 1,674,400
89 Chattanooga TN 07-06-21 12S 606,900
108 Huntsville AL 07-06-21 12S 506,400
127 Jackson MS 07-06-21 12S 420,600
87 Colorado Springs CO 07-01-21 12S 613,200
93 Madison WI 07-01-21 12S 601,200
102 Mobile AL 07-01-21 12S 543,300

Advertisement

105 Toledo OH 07-01-21 12S 512,600
106 Wichita KS 07-01-21 12S 512,200
85 Columbia SC 06-30-21 12S 617,400
71 Des Moines IA 06-30-21 12S 751,900
94 Greenville-New Bern NC 06-30-21 12S 599,800
90 Little Rock AR 06-30-21 12S 606,300
91 Monterey-Salinas CA 06-30-21 12S 603,700
96 Spokane WA 06-30-21 12S 590,200
101 Springfield MA 06-30-21 12S 554,700
88 Akron OH 06-29-21 12S 612,500
80 Bakersfield CA 06-29-21 12S 661,300
79 Charleston SC 06-29-21 12S 690,400
84 Harrisburg-Lebanon-Carlisle PA 06-29-21 12S 619,900
75 Omaha-Council Bluffs NE 06-29-21 12S 726,800
69 Albuquerque NM 06-28-21 12S 775,400
74 Allentown-Bethlehem PA 06-28-21 12S 736,400
76 El Paso TX 06-28-21 12S 696,500
66 Fresno CA 06-28-21 12S 817,300
64 Honolulu HI 06-28-21 12S 832,800
73 Knoxville TN 06-28-21 12S 739,500
78 Wilkes Barre-Scranton PA 06-28-21 12S 692,500
63 Dayton OH 06-25-21 12S 842,100
57 Fort Myers-Naples-Marco Island FL 06-25-21 12S 1,027,200
68 Grand Rapids MI 06-25-21 12S 804,900
72 Metro Fairfield County BH 06-25-21 12S 744,900
62 Tucson AZ 06-25-21 12S 906,300
65 Tulsa OK 06-25-21 12S 827,500
250 Bismarck ND 01-29-21 2A 107,400
247 Harrisonburg VA 01-29-21 2A 119,600
261 Jackson TN 01-29-21 2A 83,100

Advertisement

233 Rapid City-Spearfish, SD 01-29-21 2A 143,400
253 Sioux City IA 01-29-21 2A 100,900
182 Sioux Falls SD 01-29-21 2A 230,000
246 Wichita Falls TX 01-29-21 2A 120,600
231 Abilene TX 01-28-21 2A 145,300
222 Columbia MO 01-28-21 2A 157,500
230 Eau Claire WI 01-28-21 2A 146,500
248 Grand Island-Kearney-Hastings NE 01-28-21 2A 119,000
227 Joplin MO 01-28-21 2A 151,000
218 La Crosse WI 01-28-21 2A 167,700
238 Monroe LA 01-28-21 2A 128,400
220 Panama City FL 01-28-21 2A 160,500
242 Parkersburg-Marietta WV 01-28-21 2A 124,100
217 Rochester MN 01-28-21 2A 168,700
245 Wheeling WV 01-28-21 2S 121,000
204 Cedar Rapids IA 01-27-21 2S 193,500
201 Chico CA 01-27-21 2A 201,300
209 Duluth-Superior MN-WI 01-27-21 2S 180,100
194 Fargo-Moorhead ND-MN 01-27-21 2S 210,700
210 Florence SC 01-27-21 2A 174,100
262 Grand Forks ND 01-27-21 2A 78,600
188 Laredo TX 01-27-21 2A 219,700
185 St. Cloud MN 01-27-21 2A 226,500
236 Waterloo-Cedar Falls IA 01-27-21 2A 133,800
206 Winchester VA 01-27-21 2A 185,900
168 Amarillo TX 01-26-21 2A 259,400
191 Bryan-College Station TX 01-26-21 2A 214,400
195 Cape Cod MA 01-26-21 2A 208,900
189 Columbus GA 01-26-21 2S 217,300
187 Frederick MD 01-26-21 2C 222,700

Advertisement

166 Lubbock TX 01-26-21 2S 262,600
162 Odessa-Midland TX 01-26-21 2A 275,300
224 Redding CA 01-26-21 2A 154,100
255 Sheboygan WI 01-26-21 2A 99,300
210 Terre Haute IN 01-26-21 2S 174,100
157 Traverse City-Petoskey-Cadillac, MI 01-26-21 2A 299,900
190 Waco TX 01-26-21 2A 216,400
176 Anchorage AK 01-23-21 2S 242,400
196 Binghamton NY 01-23-21 2S 207,900
170 Bowling Green KY 01-23-21 2A 255,000
199 Charleston WV 01-23-21 2A 202,400
181 Erie PA 01-23-21 2S 232,400
145 Eugene-Springfield OR 01-23-21 2S 337,800
164 Evansville IN 01-23-21 2S 268,900
169 Huntington-Ashland WV 01-23-21 2S 258,400
130 Macon GA 01-23-21 2S 378,500
174 Morgantown-Clarksburg-Fairmont WV 01-23-21 2A 246,700
161 Rockford IL 01-23-21 2S 285,400
159 Tallahassee FL 01-23-21 2S 289,900
244 Valdosta GA 01-23-21 2A 123,100
178 Wausau-Stevens Point WI 01-23-21 2A 240,800
235 Albany GA 01-22-21 2A 134,800
149 Ann Arbor MI 01-22-21 2A 330,500
148 Beaumont-Port Arthur TX 01-22-21 2A 330,700
228 Bloomington IL 01-22-21 2S 147,900
258 Brunswick GA 01-22-21 2A 90,300
193 Dothan AL 01-22-21 2A 212,700
137 Killeen-Temple TX 01-22-21 2A 356,700
213 Lake Charles LA 01-22-21 2A 171,100
155 Montgomery AL 01-22-21 2S 307,500
158 Peoria IL 01-22-21 2S 294,000
153 Quad Cities IL 01-22-21 2S 309,800
134 Salisbury-Ocean City MD 01-22-21 2S 364,700
146 Savannah GA 01-22-21 2S 334,300
136 Springfield MO 01-22-21 2S 360,100
138 Appleton-Oshkosh WI 01-21-21 2S 352,000
112 Corpus Christi TX 01-21-21 2S 477,200
120 Fayetteville (North West Arkansas) AR 01-21-21 2A 451,400
129 Fayetteville NC 01-21-21 2S 386,500
140 Flint MI 01-21-21 2S 346,200
186 Green Bay WI 01-21-21 2S 224,100
128 Lansing-East Lansing MI 01-21-21 2S 420,300
135 Reading PA 01-21-21 2A 362,100
98 Reno NV 01-21-21 2S 569,200
150 Saginaw-Bay City-Midland MI 01-21-21 2A 325,200
144 Shreveport LA 01-21-21 2S 339,800
141 Tyler-Longview TX 01-21-21 2S 342,900
133 Youngstown-Warren OH 01-21-21 2S 370,300
260 Cheyenne WY 01-20-21 2A 84,400
107 Fort Collins-Greeley CO 01-20-21 2A 511,500

Advertisement

118 Modesto CA 01-20-21 2S 458,900
126 Morristown NJ 01-20-21 2C 431,000
122 Oxnard-Ventura CA 01-20-21 2S 443,300
131 Palm Springs CA 01-20-21 2S 375,400
171 San Luis Obispo CA 01-20-21 2A 250,700
207 Santa Barbara CA 01-20-21 2A 181,900
200 Santa Maria-Lompoc CA 01-20-21 2A 201,500
183 South Bend IN 01-20-21 2S 229,800
115 Victor Valley 01-20-21 2S 469,600
154 Atlantic City NJ 01-16-21 2S 308,500
110 Augusta GA 01-16-21 2S 493,300
240 Florence-Muscle Shoals AL 01-16-21 2A 128,100
116 Fort Wayne IN 01-16-21 2S 464,300
104 Lexington-Fayette KY 01-16-21 2S 528,300
219 Muncie-Marion IN 01-16-21 2A 167,100
121 Roanoke-Lynchburg VA 01-16-21 2S 449,800
243 Sussex NJ 01-16-21 2A 123,200
152 Trenton NJ 01-16-21 2S 320,500
119 Worcester MA 01-16-21 2S 457,500
92 Boise ID 01-15-21 2S 601,600
95 Daytona Beach FL 01-15-21 2S 596,400
97 Fort Pierce-Stuart FL 01-15-21 2S 574,900
177 Fort Walton Beach FL 01-15-21 2A 241,500
83 Lakeland-Winter Haven FL 01-15-21 2S 620,900
103 Melbourne-Titusville-Cocoa FL 01-15-21 2S 537,800
124 Pensacola FL 01-15-21 2S 435,900
232 Pueblo CO 01-15-21 2S 144,900
205 Salina-Manhattan KS 01-15-21 2A 193,400
203 Topeka KS 01-15-21 2S 196,500
86 Gainesville-Ocala FL 01-14-21 2S 615,100

Advertisement

259 Hot Springs AR 01-14-21 2A 86,700
81 Stockton 01-14-21 2S 632,400
142 Canton OH 01-13-21 2S 342,700
165 Hagerstown-Chambersburg MD 01-13-21 2A 263,400
117 Lancaster PA 01-13-21 2S 460,900
163 Lincoln NE 01-13-21 2S 273,100
132 Myrtle Beach SC 01-13-21 2A 373,100
180 New London CT 01-13-21 2A 232,600
82 Wilmington DE 01-13-21 2S 625,900
111 York PA 01-13-21 2S 477,700
114 Johnson City-Kingsport TN 01-12-21 2S 472,100
214 Las Cruces-Deming NM 01-12-21 2A 169,500
215 Sunbury-Selinsgrove-Lewisburg PA 01-12-21 2A 169,200
109 Visalia-Tulare-Hanford CA 01-12-21 2S 500,500
256 Williamsport PA 01-12-21 2A 97,900
202 Danbury CT 01-09-21 2A 200,000
160 Ft. Smith AR 01-09-21 2A 285,900
184 Kalamazoo MI 01-09-21 2S 228,900
226 Lima-Van Wert OH 01-09-21 2A 153,400
56 McAllen-Brownsville TX 01-09-21 2S 1,036,900
228 Muskegon MI 01-09-21 2A 147,900
125 New Haven CT 01-09-21 2S 431,700
70 Sarasota-Bradenton FL 01-09-21 2S 755,300
254 San Angelo TX 08-08-20 2A 100,500
234 Billings MT 08-07-20 2A 136,800
237 Grand Junction CO 08-07-20 2A 133,000
192 Bend OR 08-06-20 2A 213,800
198 Yakima WA 08-06-20 2A 205,400
175 Tri-Cities WA 08-05-20 2A 246,300
179 New Bedford-Fall River MA 08-01-20 2C 234,200

Advertisement

239 Texarkana TX-AR 07-31-20 2A 128,200
241 Twin Falls-Sun Valley ID 07-28-20 2A 127,700
249 Battle Creek MI 07-22-20 2A 114,300

Survey Key:
PPM - Portable People Meter
4S - Diary Standard Continuous Measurement
2S - Diary Standard Measurement
2C - Diary Condensed Measurement
2A - Diary 2-book Average

Ratings profiles are Copyright © 2021 Nielsen Audio. May not be quoted orreproduced without the prior written permission of Nielsen Audio.

Promotions Spotlight

Advertisement

Advertisement

Advertisement

Advertisement

Advertisement